sensor_id;sensor_type;location;lat;lon;timestamp;temperature;humidity
71254;HTU21D;59019;47.638;18.966;2024-03-17T00:01:09;10.77;96.75
71254;HTU21D;59019;47.638;18.966;2024-03-17T00:03:35;10.71;96.69
71254;HTU21D;59019;47.638;18.966;2024-03-17T00:06:02;10.73;96.65
71254;HTU21D;59019;47.638;18.966;2024-03-17T00:08:33;10.74;96.31
71254;HTU21D;59019;47.638;18.966;2024-03-17T00:10:59;10.70;96.27
71254;HTU21D;59019;47.638;18.966;2024-03-17T00:13:26;10.63;96.61
71254;HTU21D;59019;47.638;18.966;2024-03-17T00:15:52;10.58;96.72
71254;HTU21D;59019;47.638;18.966;2024-03-17T00:18:18;10.52;97.00
71254;HTU21D;59019;47.638;18.966;2024-03-17T00:20:48;10.59;96.84
71254;HTU21D;59019;47.638;18.966;2024-03-17T00:23:14;10.48;97.19
71254;HTU21D;59019;47.638;18.966;2024-03-17T00:25:41;10.44;97.62
71254;HTU21D;59019;47.638;18.966;2024-03-17T00:28:08;10.57;97.24
71254;HTU21D;59019;47.638;18.966;2024-03-17T00:30:34;10.62;97.18
71254;HTU21D;59019;47.638;18.966;2024-03-17T00:33:02;10.52;97.26
71254;HTU21D;59019;47.638;18.966;2024-03-17T00:35:29;10.43;97.65
71254;HTU21D;59019;47.638;18.966;2024-03-17T00:37:56;10.49;97.52
71254;HTU21D;59019;47.638;18.966;2024-03-17T00:40:22;10.41;97.68
71254;HTU21D;59019;47.638;18.966;2024-03-17T00:42:49;10.36;97.81
71254;HTU21D;59019;47.638;18.966;2024-03-17T00:45:15;10.40;97.81
71254;HTU21D;59019;47.638;18.966;2024-03-17T00:47:45;10.43;97.84
71254;HTU21D;59019;47.638;18.966;2024-03-17T00:50:11;10.38;97.96
71254;HTU21D;59019;47.638;18.966;2024-03-17T00:52:38;10.33;97.94
71254;HTU21D;59019;47.638;18.966;2024-03-17T00:55:05;10.38;97.89
71254;HTU21D;59019;47.638;18.966;2024-03-17T00:57:32;10.43;97.96
71254;HTU21D;59019;47.638;18.966;2024-03-17T00:59:58;10.43;97.95
71254;HTU21D;59019;47.638;18.966;2024-03-17T01:02:25;10.41;97.78
71254;HTU21D;59019;47.638;18.966;2024-03-17T01:04:51;10.34;97.94
71254;HTU21D;59019;47.638;18.966;2024-03-17T01:07:18;10.44;97.93
71254;HTU21D;59019;47.638;18.966;2024-03-17T01:09:47;10.41;97.65
71254;HTU21D;59019;47.638;18.966;2024-03-17T01:12:13;10.46;97.65
71254;HTU21D;59019;47.638;18.966;2024-03-17T01:14:40;10.39;97.41
71254;HTU21D;59019;47.638;18.966;2024-03-17T01:17:06;10.37;97.53
71254;HTU21D;59019;47.638;18.966;2024-03-17T01:19:33;10.28;98.06
71254;HTU21D;59019;47.638;18.966;2024-03-17T01:22:02;10.30;97.99
71254;HTU21D;59019;47.638;18.966;2024-03-17T01:24:28;10.22;97.99
71254;HTU21D;59019;47.638;18.966;2024-03-17T01:27:00;10.21;98.39
71254;HTU21D;59019;47.638;18.966;2024-03-17T01:29:27;10.20;98.48
71254;HTU21D;59019;47.638;18.966;2024-03-17T01:31:54;10.23;98.51
71254;HTU21D;59019;47.638;18.966;2024-03-17T01:34:22;10.09;98.46
71254;HTU21D;59019;47.638;18.966;2024-03-17T01:36:48;10.11;98.59
71254;HTU21D;59019;47.638;18.966;2024-03-17T01:39:18;10.11;98.64
71254;HTU21D;59019;47.638;18.966;2024-03-17T01:41:44;10.14;98.36
71254;HTU21D;59019;47.638;18.966;2024-03-17T01:44:32;10.13;98.29
71254;HTU21D;59019;47.638;18.966;2024-03-17T01:46:58;10.03;98.91
71254;HTU21D;59019;47.638;18.966;2024-03-17T01:49:26;9.99;99.13
71254;HTU21D;59019;47.638;18.966;2024-03-17T01:51:53;9.96;99.51
71254;HTU21D;59019;47.638;18.966;2024-03-17T01:54:21;10.05;98.94
71254;HTU21D;59019;47.638;18.966;2024-03-17T01:56:50;9.96;99.42
71254;HTU21D;59019;47.638;18.966;2024-03-17T01:59:16;10.00;99.32
71254;HTU21D;59019;47.638;18.966;2024-03-17T02:01:43;10.06;99.59
71254;HTU21D;59019;47.638;18.966;2024-03-17T02:04:13;10.05;99.80
71254;HTU21D;59019;47.638;18.966;2024-03-17T02:06:39;9.99;99.71
71254;HTU21D;59019;47.638;18.966;2024-03-17T02:09:07;10.00;99.65
71254;HTU21D;59019;47.638;18.966;2024-03-17T02:11:35;9.95;99.80
71254;HTU21D;59019;47.638;18.966;2024-03-17T02:14:01;10.00;99.50
71254;HTU21D;59019;47.638;18.966;2024-03-17T02:16:33;9.93;100.00
71254;HTU21D;59019;47.638;18.966;2024-03-17T02:18:59;9.94;100.15
71254;HTU21D;59019;47.638;18.966;2024-03-17T02:21:26;9.99;100.00
71254;HTU21D;59019;47.638;18.966;2024-03-17T02:23:54;10.08;99.87
71254;HTU21D;59019;47.638;18.966;2024-03-17T02:26:27;10.12;99.51
71254;HTU21D;59019;47.638;18.966;2024-03-17T02:28:53;9.94;99.65
71254;HTU21D;59019;47.638;18.966;2024-03-17T02:31:19;9.97;99.57
71254;HTU21D;59019;47.638;18.966;2024-03-17T02:33:50;9.81;100.61
71254;HTU21D;59019;47.638;18.966;2024-03-17T02:36:17;9.75;100.63
71254;HTU21D;59019;47.638;18.966;2024-03-17T02:38:43;9.76;100.69
71254;HTU21D;59019;47.638;18.966;2024-03-17T02:41:27;9.74;100.62
71254;HTU21D;59019;47.638;18.966;2024-03-17T02:43:57;9.71;100.54
71254;HTU21D;59019;47.638;18.966;2024-03-17T02:46:23;9.61;100.70
71254;HTU21D;59019;47.638;18.966;2024-03-17T02:48:51;9.56;100.59
71254;HTU21D;59019;47.638;18.966;2024-03-17T02:51:19;9.54;100.01
71254;HTU21D;59019;47.638;18.966;2024-03-17T02:53:50;9.56;99.55
71254;HTU21D;59019;47.638;18.966;2024-03-17T02:56:17;9.55;98.62
71254;HTU21D;59019;47.638;18.966;2024-03-17T02:58:45;9.54;98.55
71254;HTU21D;59019;47.638;18.966;2024-03-17T03:01:12;9.48;99.42
71254;HTU21D;59019;47.638;18.966;2024-03-17T03:03:38;9.35;100.06
71254;HTU21D;59019;47.638;18.966;2024-03-17T03:06:09;9.22;99.57
71254;HTU21D;59019;47.638;18.966;2024-03-17T03:08:36;9.33;99.02
71254;HTU21D;59019;47.638;18.966;2024-03-17T03:11:09;9.27;98.97
71254;HTU21D;59019;47.638;18.966;2024-03-17T03:13:40;9.22;99.38
71254;HTU21D;59019;47.638;18.966;2024-03-17T03:16:26;9.16;100.46
71254;HTU21D;59019;47.638;18.966;2024-03-17T03:18:54;9.02;102.01
71254;HTU21D;59019;47.638;18.966;2024-03-17T03:21:20;9.06;101.70
71254;HTU21D;59019;47.638;18.966;2024-03-17T03:23:50;9.03;101.48
71254;HTU21D;59019;47.638;18.966;2024-03-17T03:26:20;8.95;100.76
71254;HTU21D;59019;47.638;18.966;2024-03-17T03:28:50;8.91;100.63
71254;HTU21D;59019;47.638;18.966;2024-03-17T03:31:17;8.82;100.91
71254;HTU21D;59019;47.638;18.966;2024-03-17T03:33:44;8.81;101.44
71254;HTU21D;59019;47.638;18.966;2024-03-17T03:36:11;8.82;102.93
71254;HTU21D;59019;47.638;18.966;2024-03-17T03:38:37;8.76;102.94
71254;HTU21D;59019;47.638;18.966;2024-03-17T03:41:08;8.63;104.22
71254;HTU21D;59019;47.638;18.966;2024-03-17T03:43:35;8.68;104.24
71254;HTU21D;59019;47.638;18.966;2024-03-17T03:46:02;8.58;104.57
71254;HTU21D;59019;47.638;18.966;2024-03-17T03:48:29;8.51;104.93
71254;HTU21D;59019;47.638;18.966;2024-03-17T03:50:54;8.60;104.57
71254;HTU21D;59019;47.638;18.966;2024-03-17T03:53:20;8.60;103.63
71254;HTU21D;59019;47.638;18.966;2024-03-17T03:55:47;8.52;102.85
71254;HTU21D;59019;47.638;18.966;2024-03-17T03:58:17;8.64;102.37
71254;HTU21D;59019;47.638;18.966;2024-03-17T04:00:43;8.61;101.69
71254;HTU21D;59019;47.638;18.966;2024-03-17T04:03:09;8.59;101.64
71254;HTU21D;59019;47.638;18.966;2024-03-17T04:05:36;8.41;103.03
71254;HTU21D;59019;47.638;18.966;2024-03-17T04:08:03;8.37;102.90
71254;HTU21D;59019;47.638;18.966;2024-03-17T04:10:35;8.24;102.58
71254;HTU21D;59019;47.638;18.966;2024-03-17T04:13:02;8.20;101.67
71254;HTU21D;59019;47.638;18.966;2024-03-17T04:15:29;8.08;101.24
71254;HTU21D;59019;47.638;18.966;2024-03-17T04:17:55;8.08;101.50
71254;HTU21D;59019;47.638;18.966;2024-03-17T04:20:21;8.00;102.30
71254;HTU21D;59019;47.638;18.966;2024-03-17T04:22:48;7.96;101.82
71254;HTU21D;59019;47.638;18.966;2024-03-17T04:25:15;8.01;101.82
71254;HTU21D;59019;47.638;18.966;2024-03-17T04:27:41;7.79;101.38
71254;HTU21D;59019;47.638;18.966;2024-03-17T04:30:14;7.73;101.15
71254;HTU21D;59019;47.638;18.966;2024-03-17T04:32:41;7.73;101.12
71254;HTU21D;59019;47.638;18.966;2024-03-17T04:35:08;7.70;100.90
71254;HTU21D;59019;47.638;18.966;2024-03-17T04:37:34;7.60;102.06
71254;HTU21D;59019;47.638;18.966;2024-03-17T04:40:08;7.60;101.77
71254;HTU21D;59019;47.638;18.966;2024-03-17T04:42:38;7.55;101.60
71254;HTU21D;59019;47.638;18.966;2024-03-17T04:45:07;7.48;101.79
71254;HTU21D;59019;47.638;18.966;2024-03-17T04:47:35;7.54;102.00
71254;HTU21D;59019;47.638;18.966;2024-03-17T04:50:12;7.50;101.91
71254;HTU21D;59019;47.638;18.966;2024-03-17T04:52:41;7.47;102.22
71254;HTU21D;59019;47.638;18.966;2024-03-17T04:55:08;7.47;101.96
71254;HTU21D;59019;47.638;18.966;2024-03-17T04:57:34;7.34;102.04
71254;HTU21D;59019;47.638;18.966;2024-03-17T05:00:09;7.33;102.29
71254;HTU21D;59019;47.638;18.966;2024-03-17T05:02:38;7.41;102.03
71254;HTU21D;59019;47.638;18.966;2024-03-17T05:05:05;7.31;101.82
71254;HTU21D;59019;47.638;18.966;2024-03-17T05:07:34;7.28;101.70
71254;HTU21D;59019;47.638;18.966;2024-03-17T05:10:00;7.27;101.54
71254;HTU21D;59019;47.638;18.966;2024-03-17T05:12:27;7.27;100.80
71254;HTU21D;59019;47.638;18.966;2024-03-17T05:14:59;7.32;99.73
71254;HTU21D;59019;47.638;18.966;2024-03-17T05:17:44;7.22;98.72
71254;HTU21D;59019;47.638;18.966;2024-03-17T05:20:11;7.25;98.65
71254;HTU21D;59019;47.638;18.966;2024-03-17T05:22:38;7.10;98.20
71254;HTU21D;59019;47.638;18.966;2024-03-17T05:25:06;7.05;97.89
71254;HTU21D;59019;47.638;18.966;2024-03-17T05:27:33;6.94;97.39
71254;HTU21D;59019;47.638;18.966;2024-03-17T05:29:59;6.86;96.72
71254;HTU21D;59019;47.638;18.966;2024-03-17T05:32:26;6.95;95.62
71254;HTU21D;59019;47.638;18.966;2024-03-17T05:34:52;6.82;95.32
71254;HTU21D;59019;47.638;18.966;2024-03-17T05:37:19;6.90;94.99
71254;HTU21D;59019;47.638;18.966;2024-03-17T05:39:45;6.84;94.98
71254;HTU21D;59019;47.638;18.966;2024-03-17T05:42:12;6.74;95.21
71254;HTU21D;59019;47.638;18.966;2024-03-17T05:44:39;6.76;95.15
71254;HTU21D;59019;47.638;18.966;2024-03-17T05:47:19;6.66;94.59
71254;HTU21D;59019;47.638;18.966;2024-03-17T05:49:45;6.75;94.33
71254;HTU21D;59019;47.638;18.966;2024-03-17T05:52:12;6.73;94.17
71254;HTU21D;59019;47.638;18.966;2024-03-17T05:54:38;6.74;94.41
71254;HTU21D;59019;47.638;18.966;2024-03-17T05:57:04;6.68;93.71
71254;HTU21D;59019;47.638;18.966;2024-03-17T05:59:35;6.73;94.43
71254;HTU21D;59019;47.638;18.966;2024-03-17T06:02:02;6.69;94.33
71254;HTU21D;59019;47.638;18.966;2024-03-17T06:04:28;6.60;94.36
71254;HTU21D;59019;47.638;18.966;2024-03-17T06:06:55;6.80;93.98
71254;HTU21D;59019;47.638;18.966;2024-03-17T06:09:21;6.93;93.29
71254;HTU21D;59019;47.638;18.966;2024-03-17T06:11:48;6.90;92.89
71254;HTU21D;59019;47.638;18.966;2024-03-17T06:14:16;6.93;93.30
71254;HTU21D;59019;47.638;18.966;2024-03-17T06:16:42;6.91;93.03
71254;HTU21D;59019;47.638;18.966;2024-03-17T06:19:09;7.02;92.79
71254;HTU21D;59019;47.638;18.966;2024-03-17T06:21:36;7.04;92.54
71254;HTU21D;59019;47.638;18.966;2024-03-17T06:24:05;7.03;92.46
71254;HTU21D;59019;47.638;18.966;2024-03-17T06:26:32;7.13;92.49
71254;HTU21D;59019;47.638;18.966;2024-03-17T06:29:00;7.24;92.21
71254;HTU21D;59019;47.638;18.966;2024-03-17T06:31:26;7.42;91.64
71254;HTU21D;59019;47.638;18.966;2024-03-17T06:33:53;7.57;90.79
71254;HTU21D;59019;47.638;18.966;2024-03-17T06:36:19;7.48;90.06
71254;HTU21D;59019;47.638;18.966;2024-03-17T06:38:45;7.64;90.03
71254;HTU21D;59019;47.638;18.966;2024-03-17T06:41:11;7.96;88.76
71254;HTU21D;59019;47.638;18.966;2024-03-17T06:43:40;8.00;88.64
71254;HTU21D;59019;47.638;18.966;2024-03-17T06:46:09;8.22;88.22
71254;HTU21D;59019;47.638;18.966;2024-03-17T06:48:35;8.47;86.90
71254;HTU21D;59019;47.638;18.966;2024-03-17T06:51:01;8.48;86.37
71254;HTU21D;59019;47.638;18.966;2024-03-17T06:53:28;8.49;85.96
71254;HTU21D;59019;47.638;18.966;2024-03-17T06:55:55;8.82;85.71
71254;HTU21D;59019;47.638;18.966;2024-03-17T06:58:23;9.00;85.17
71254;HTU21D;59019;47.638;18.966;2024-03-17T07:01:08;8.98;84.87
71254;HTU21D;59019;47.638;18.966;2024-03-17T07:03:35;9.20;84.98
71254;HTU21D;59019;47.638;18.966;2024-03-17T07:06:02;9.38;84.21
71254;HTU21D;59019;47.638;18.966;2024-03-17T07:08:30;9.30;84.38
71254;HTU21D;59019;47.638;18.966;2024-03-17T07:11:04;9.54;84.04
71254;HTU21D;59019;47.638;18.966;2024-03-17T07:13:35;9.12;83.59
71254;HTU21D;59019;47.638;18.966;2024-03-17T07:16:03;9.19;84.03
71254;HTU21D;59019;47.638;18.966;2024-03-17T07:18:32;9.40;84.02
71254;HTU21D;59019;47.638;18.966;2024-03-17T07:20:59;9.60;83.28
71254;HTU21D;59019;47.638;18.966;2024-03-17T07:23:26;9.81;82.05
71254;HTU21D;59019;47.638;18.966;2024-03-17T07:25:53;10.15;81.72
71254;HTU21D;59019;47.638;18.966;2024-03-17T07:28:23;10.33;81.33
71254;HTU21D;59019;47.638;18.966;2024-03-17T07:30:51;10.66;80.17
71254;HTU21D;59019;47.638;18.966;2024-03-17T07:33:18;10.36;79.78
71254;HTU21D;59019;47.638;18.966;2024-03-17T07:35:50;10.96;80.19
71254;HTU21D;59019;47.638;18.966;2024-03-17T07:38:16;11.10;79.35
71254;HTU21D;59019;47.638;18.966;2024-03-17T07:40:42;11.15;78.06
71254;HTU21D;59019;47.638;18.966;2024-03-17T07:43:08;10.90;77.23
71254;HTU21D;59019;47.638;18.966;2024-03-17T07:45:35;10.96;76.97
71254;HTU21D;59019;47.638;18.966;2024-03-17T07:48:01;10.98;77.48
71254;HTU21D;59019;47.638;18.966;2024-03-17T07:50:27;11.10;77.81
71254;HTU21D;59019;47.638;18.966;2024-03-17T07:52:54;11.07;77.48
71254;HTU21D;59019;47.638;18.966;2024-03-17T07:55:20;11.53;77.25
71254;HTU21D;59019;47.638;18.966;2024-03-17T07:57:51;11.51;75.92
71254;HTU21D;59019;47.638;18.966;2024-03-17T08:00:17;11.88;75.02
71254;HTU21D;59019;47.638;18.966;2024-03-17T08:02:45;11.38;75.05
71254;HTU21D;59019;47.638;18.966;2024-03-17T08:05:11;11.12;75.02
71254;HTU21D;59019;47.638;18.966;2024-03-17T08:07:39;11.61;75.44
71254;HTU21D;59019;47.638;18.966;2024-03-17T08:10:08;11.66;73.67
71254;HTU21D;59019;47.638;18.966;2024-03-17T08:12:34;11.48;73.21
71254;HTU21D;59019;47.638;18.966;2024-03-17T08:15:00;11.79;73.40
71254;HTU21D;59019;47.638;18.966;2024-03-17T08:17:26;11.92;72.05
71254;HTU21D;59019;47.638;18.966;2024-03-17T08:19:53;11.63;72.01
71254;HTU21D;59019;47.638;18.966;2024-03-17T08:22:19;12.02;71.22
71254;HTU21D;59019;47.638;18.966;2024-03-17T08:24:46;11.78;71.67
71254;HTU21D;59019;47.638;18.966;2024-03-17T08:27:16;12.06;71.08
71254;HTU21D;59019;47.638;18.966;2024-03-17T08:29:42;12.29;70.82
71254;HTU21D;59019;47.638;18.966;2024-03-17T08:32:09;12.77;71.58
71254;HTU21D;59019;47.638;18.966;2024-03-17T08:34:35;12.36;70.13
71254;HTU21D;59019;47.638;18.966;2024-03-17T08:37:02;12.58;70.39
71254;HTU21D;59019;47.638;18.966;2024-03-17T08:39:29;12.37;68.97
71254;HTU21D;59019;47.638;18.966;2024-03-17T08:41:55;12.20;70.10
71254;HTU21D;59019;47.638;18.966;2024-03-17T08:44:21;12.40;70.44
71254;HTU21D;59019;47.638;18.966;2024-03-17T08:46:48;12.72;69.95
71254;HTU21D;59019;47.638;18.966;2024-03-17T08:49:14;12.48;69.65
71254;HTU21D;59019;47.638;18.966;2024-03-17T08:51:41;12.57;69.74
71254;HTU21D;59019;47.638;18.966;2024-03-17T08:54:07;12.65;69.41
71254;HTU21D;59019;47.638;18.966;2024-03-17T08:56:33;12.71;69.50
71254;HTU21D;59019;47.638;18.966;2024-03-17T08:59:01;12.37;70.26
71254;HTU21D;59019;47.638;18.966;2024-03-17T09:01:28;12.51;70.03
71254;HTU21D;59019;47.638;18.966;2024-03-17T09:03:54;12.85;70.50
71254;HTU21D;59019;47.638;18.966;2024-03-17T09:06:22;12.85;69.14
71254;HTU21D;59019;47.638;18.966;2024-03-17T09:08:55;12.76;69.30
71254;HTU21D;59019;47.638;18.966;2024-03-17T09:11:22;12.61;69.03
71254;HTU21D;59019;47.638;18.966;2024-03-17T09:13:51;12.74;69.01
71254;HTU21D;59019;47.638;18.966;2024-03-17T09:16:18;13.03;68.85
71254;HTU21D;59019;47.638;18.966;2024-03-17T09:18:44;13.05;67.04
71254;HTU21D;59019;47.638;18.966;2024-03-17T09:21:11;13.23;67.54
71254;HTU21D;59019;47.638;18.966;2024-03-17T09:23:39;12.99;66.06
71254;HTU21D;59019;47.638;18.966;2024-03-17T09:26:09;13.19;66.46
71254;HTU21D;59019;47.638;18.966;2024-03-17T09:28:36;13.27;67.33
71254;HTU21D;59019;47.638;18.966;2024-03-17T09:31:02;13.75;66.40
71254;HTU21D;59019;47.638;18.966;2024-03-17T09:33:33;13.39;65.24
71254;HTU21D;59019;47.638;18.966;2024-03-17T09:36:04;13.92;65.93
71254;HTU21D;59019;47.638;18.966;2024-03-17T09:38:33;14.33;65.22
71254;HTU21D;59019;47.638;18.966;2024-03-17T09:41:00;14.27;62.92
71254;HTU21D;59019;47.638;18.966;2024-03-17T09:43:32;14.33;63.82
71254;HTU21D;59019;47.638;18.966;2024-03-17T09:46:01;14.12;64.10
71254;HTU21D;59019;47.638;18.966;2024-03-17T09:48:28;14.69;63.02
71254;HTU21D;59019;47.638;18.966;2024-03-17T09:50:59;14.64;62.03
71254;HTU21D;59019;47.638;18.966;2024-03-17T09:53:48;14.59;61.92
71254;HTU21D;59019;47.638;18.966;2024-03-17T09:56:18;14.50;62.67
71254;HTU21D;59019;47.638;18.966;2024-03-17T09:58:51;14.52;62.23
71254;HTU21D;59019;47.638;18.966;2024-03-17T10:01:18;14.27;62.76
71254;HTU21D;59019;47.638;18.966;2024-03-17T10:03:48;14.77;62.31
71254;HTU21D;59019;47.638;18.966;2024-03-17T10:06:18;14.60;61.96
71254;HTU21D;59019;47.638;18.966;2024-03-17T10:08:52;13.52;63.02
71254;HTU21D;59019;47.638;18.966;2024-03-17T10:11:20;13.98;63.41
71254;HTU21D;59019;47.638;18.966;2024-03-17T10:13:47;14.28;62.79
71254;HTU21D;59019;47.638;18.966;2024-03-17T10:16:26;13.79;62.05
71254;HTU21D;59019;47.638;18.966;2024-03-17T10:21:38;14.44;62.43
71254;HTU21D;59019;47.638;18.966;2024-03-17T10:24:12;14.82;60.94
71254;HTU21D;59019;47.638;18.966;2024-03-17T10:26:48;15.28;59.96
71254;HTU21D;59019;47.638;18.966;2024-03-17T10:31:54;15.61;57.60
71254;HTU21D;59019;47.638;18.966;2024-03-17T10:34:22;15.55;57.41
71254;HTU21D;59019;47.638;18.966;2024-03-17T10:37:09;15.73;57.67
71254;HTU21D;59019;47.638;18.966;2024-03-17T10:39:39;15.84;55.33
71254;HTU21D;59019;47.638;18.966;2024-03-17T10:42:07;16.28;56.17
71254;HTU21D;59019;47.638;18.966;2024-03-17T10:44:41;16.51;55.10
71254;HTU21D;59019;47.638;18.966;2024-03-17T10:47:25;16.55;54.61
71254;HTU21D;59019;47.638;18.966;2024-03-17T10:50:15;16.46;54.36
71254;HTU21D;59019;47.638;18.966;2024-03-17T10:52:47;16.78;55.17
71254;HTU21D;59019;47.638;18.966;2024-03-17T10:55:22;17.24;54.28
71254;HTU21D;59019;47.638;18.966;2024-03-17T10:57:51;16.96;54.15
71254;HTU21D;59019;47.638;18.966;2024-03-17T11:00:22;16.62;54.17
71254;HTU21D;59019;47.638;18.966;2024-03-17T11:02:54;16.47;54.49
71254;HTU21D;59019;47.638;18.966;2024-03-17T11:05:26;16.51;55.29
71254;HTU21D;59019;47.638;18.966;2024-03-17T11:07:57;16.64;54.88
71254;HTU21D;59019;47.638;18.966;2024-03-17T11:10:34;16.96;54.70
71254;HTU21D;59019;47.638;18.966;2024-03-17T11:13:01;17.11;53.95
71254;HTU21D;59019;47.638;18.966;2024-03-17T11:20:36;17.07;53.71
71254;HTU21D;59019;47.638;18.966;2024-03-17T11:23:06;17.31;53.26
71254;HTU21D;59019;47.638;18.966;2024-03-17T11:28:00;16.50;52.55
71254;HTU21D;59019;47.638;18.966;2024-03-17T11:30:43;16.80;52.24
71254;HTU21D;59019;47.638;18.966;2024-03-17T11:41:42;16.99;53.72
71254;HTU21D;59019;47.638;18.966;2024-03-17T11:46:58;17.00;52.34
71254;HTU21D;59019;47.638;18.966;2024-03-17T11:49:38;17.32;53.90
71254;HTU21D;59019;47.638;18.966;2024-03-17T11:52:09;17.59;52.17
71254;HTU21D;59019;47.638;18.966;2024-03-17T11:54:44;17.05;52.42
71254;HTU21D;59019;47.638;18.966;2024-03-17T11:57:26;17.19;53.15
71254;HTU21D;59019;47.638;18.966;2024-03-17T11:59:54;17.26;53.20
71254;HTU21D;59019;47.638;18.966;2024-03-17T12:02:31;17.28;52.30
71254;HTU21D;59019;47.638;18.966;2024-03-17T12:05:02;17.44;51.88
71254;HTU21D;59019;47.638;18.966;2024-03-17T12:07:28;17.67;52.05
71254;HTU21D;59019;47.638;18.966;2024-03-17T12:09:56;17.94;52.01
71254;HTU21D;59019;47.638;18.966;2024-03-17T12:12:27;18.02;51.34
71254;HTU21D;59019;47.638;18.966;2024-03-17T12:15:01;17.20;50.50
71254;HTU21D;59019;47.638;18.966;2024-03-17T12:17:28;17.34;50.46
71254;HTU21D;59019;47.638;18.966;2024-03-17T12:19:55;17.29;52.07
71254;HTU21D;59019;47.638;18.966;2024-03-17T12:22:23;17.41;50.85
71254;HTU21D;59019;47.638;18.966;2024-03-17T12:24:53;17.45;50.80
71254;HTU21D;59019;47.638;18.966;2024-03-17T12:27:21;16.94;49.92
71254;HTU21D;59019;47.638;18.966;2024-03-17T12:29:48;16.90;50.72
71254;HTU21D;59019;47.638;18.966;2024-03-17T12:32:16;16.63;50.03
71254;HTU21D;59019;47.638;18.966;2024-03-17T12:34:44;16.45;52.14
71254;HTU21D;59019;47.638;18.966;2024-03-17T12:37:17;16.78;50.55
71254;HTU21D;59019;47.638;18.966;2024-03-17T12:39:44;17.23;51.41
71254;HTU21D;59019;47.638;18.966;2024-03-17T12:42:18;17.31;48.60
71254;HTU21D;59019;47.638;18.966;2024-03-17T12:44:49;17.45;49.24
71254;HTU21D;59019;47.638;18.966;2024-03-17T12:49:52;17.23;48.82
71254;HTU21D;59019;47.638;18.966;2024-03-17T12:52:34;17.23;47.52
71254;HTU21D;59019;47.638;18.966;2024-03-17T12:55:02;17.33;48.18
71254;HTU21D;59019;47.638;18.966;2024-03-17T12:57:47;17.08;49.33
71254;HTU21D;59019;47.638;18.966;2024-03-17T13:00:58;17.33;48.59
71254;HTU21D;59019;47.638;18.966;2024-03-17T13:03:34;17.38;47.76
71254;HTU21D;59019;47.638;18.966;2024-03-17T13:06:01;17.49;47.83
71254;HTU21D;59019;47.638;18.966;2024-03-17T13:08:47;17.24;47.09
71254;HTU21D;59019;47.638;18.966;2024-03-17T13:11:15;16.74;46.94
71254;HTU21D;59019;47.638;18.966;2024-03-17T13:13:41;16.16;48.20
71254;HTU21D;59019;47.638;18.966;2024-03-17T13:16:08;16.05;48.63
71254;HTU21D;59019;47.638;18.966;2024-03-17T13:18:35;16.51;48.79
71254;HTU21D;59019;47.638;18.966;2024-03-17T13:21:01;16.46;47.79
71254;HTU21D;59019;47.638;18.966;2024-03-17T13:23:28;16.01;48.76
71254;HTU21D;59019;47.638;18.966;2024-03-17T13:25:55;16.08;49.16
71254;HTU21D;59019;47.638;18.966;2024-03-17T13:28:25;16.19;49.68
71254;HTU21D;59019;47.638;18.966;2024-03-17T13:30:52;16.51;50.47
71254;HTU21D;59019;47.638;18.966;2024-03-17T13:33:18;16.72;50.08
71254;HTU21D;59019;47.638;18.966;2024-03-17T13:35:45;16.89;48.47
71254;HTU21D;59019;47.638;18.966;2024-03-17T13:38:11;16.64;47.04
71254;HTU21D;59019;47.638;18.966;2024-03-17T13:40:38;16.27;48.97
71254;HTU21D;59019;47.638;18.966;2024-03-17T13:43:05;16.85;49.31
71254;HTU21D;59019;47.638;18.966;2024-03-17T13:45:56;16.98;47.49
71254;HTU21D;59019;47.638;18.966;2024-03-17T13:48:23;16.98;47.12
71254;HTU21D;59019;47.638;18.966;2024-03-17T13:50:49;16.78;47.47
71254;HTU21D;59019;47.638;18.966;2024-03-17T13:53:15;16.48;49.12
71254;HTU21D;59019;47.638;18.966;2024-03-17T13:55:42;16.72;49.96
71254;HTU21D;59019;47.638;18.966;2024-03-17T13:58:08;16.70;49.66
71254;HTU21D;59019;47.638;18.966;2024-03-17T14:00:34;16.33;49.49
71254;HTU21D;59019;47.638;18.966;2024-03-17T14:03:04;16.41;50.08
71254;HTU21D;59019;47.638;18.966;2024-03-17T14:05:31;16.48;50.63
71254;HTU21D;59019;47.638;18.966;2024-03-17T14:08:00;16.24;50.43
71254;HTU21D;59019;47.638;18.966;2024-03-17T14:10:27;16.20;50.92
71254;HTU21D;59019;47.638;18.966;2024-03-17T14:12:53;15.83;49.78
71254;HTU21D;59019;47.638;18.966;2024-03-17T14:15:20;15.81;50.19
71254;HTU21D;59019;47.638;18.966;2024-03-17T14:17:48;15.86;50.71
71254;HTU21D;59019;47.638;18.966;2024-03-17T14:20:17;15.75;50.60
71254;HTU21D;59019;47.638;18.966;2024-03-17T14:22:45;15.69;50.04
71254;HTU21D;59019;47.638;18.966;2024-03-17T14:25:19;15.51;50.38
71254;HTU21D;59019;47.638;18.966;2024-03-17T14:27:48;15.41;50.46
71254;HTU21D;59019;47.638;18.966;2024-03-17T14:30:18;15.03;51.15
71254;HTU21D;59019;47.638;18.966;2024-03-17T14:32:45;14.68;51.85
71254;HTU21D;59019;47.638;18.966;2024-03-17T14:35:16;13.96;53.77
71254;HTU21D;59019;47.638;18.966;2024-03-17T14:37:43;13.70;54.55
71254;HTU21D;59019;47.638;18.966;2024-03-17T14:40:14;13.25;55.12
71254;HTU21D;59019;47.638;18.966;2024-03-17T14:42:48;12.95;56.00
71254;HTU21D;59019;47.638;18.966;2024-03-17T14:45:14;12.66;56.56
71254;HTU21D;59019;47.638;18.966;2024-03-17T14:47:40;12.37;57.14
71254;HTU21D;59019;47.638;18.966;2024-03-17T14:50:07;12.07;57.61
71254;HTU21D;59019;47.638;18.966;2024-03-17T14:52:34;12.10;57.87
71254;HTU21D;59019;47.638;18.966;2024-03-17T14:55:01;11.85;58.80
71254;HTU21D;59019;47.638;18.966;2024-03-17T14:57:27;11.83;58.93
71254;HTU21D;59019;47.638;18.966;2024-03-17T14:59:54;11.57;58.79
71254;HTU21D;59019;47.638;18.966;2024-03-17T15:02:24;11.55;58.57
71254;HTU21D;59019;47.638;18.966;2024-03-17T15:04:52;11.37;59.10
71254;HTU21D;59019;47.638;18.966;2024-03-17T15:07:19;11.45;59.77
71254;HTU21D;59019;47.638;18.966;2024-03-17T15:09:45;11.36;60.33
71254;HTU21D;59019;47.638;18.966;2024-03-17T15:12:14;11.15;61.46
71254;HTU21D;59019;47.638;18.966;2024-03-17T15:14:41;11.04;61.36
71254;HTU21D;59019;47.638;18.966;2024-03-17T15:17:07;11.19;61.24
71254;HTU21D;59019;47.638;18.966;2024-03-17T15:19:37;11.32;60.83
71254;HTU21D;59019;47.638;18.966;2024-03-17T15:22:08;11.25;60.70
71254;HTU21D;59019;47.638;18.966;2024-03-17T15:24:35;11.29;60.31
71254;HTU21D;59019;47.638;18.966;2024-03-17T15:27:02;11.25;60.51
71254;HTU21D;59019;47.638;18.966;2024-03-17T15:29:29;11.16;60.95
71254;HTU21D;59019;47.638;18.966;2024-03-17T15:31:56;11.09;61.96
71254;HTU21D;59019;47.638;18.966;2024-03-17T15:34:23;10.99;62.74
71254;HTU21D;59019;47.638;18.966;2024-03-17T15:36:50;11.04;62.88
71254;HTU21D;59019;47.638;18.966;2024-03-17T15:39:17;10.89;63.25
71254;HTU21D;59019;47.638;18.966;2024-03-17T15:41:45;10.85;64.13